createdAt,value
2022-12-08T00:00:36.259Z,1.30
2022-12-08T00:01:39.184Z,1.30
2022-12-08T00:02:44.356Z,1.40
2022-12-08T00:03:47.222Z,1.40
2022-12-08T00:05:07.708Z,1.48
2022-12-08T00:06:50.115Z,1.50
2022-12-08T00:08:10.982Z,1.15
2022-12-08T00:09:39.331Z,1.60
2022-12-08T00:10:49.633Z,1.63
2022-12-08T00:12:13.084Z,1.70
2022-12-08T00:13:15.280Z,1.50
2022-12-08T00:14:17.961Z,1.55
2022-12-08T00:15:20.125Z,2.00
2022-12-08T00:16:22.379Z,1.80
2022-12-08T00:17:24.640Z,1.73
2022-12-08T00:18:27.023Z,1.80
2022-12-08T00:19:30.615Z,1.50
2022-12-08T00:20:32.780Z,1.70
2022-12-08T00:21:35.147Z,1.50
2022-12-08T00:22:37.283Z,1.90
2022-12-08T00:23:39.675Z,1.60
2022-12-08T00:24:44.975Z,1.70
2022-12-08T00:25:47.180Z,1.27
2022-12-08T00:26:50.012Z,1.70
2022-12-08T00:27:52.195Z,1.40
2022-12-08T00:28:54.378Z,1.50
2022-12-08T00:29:56.591Z,1.80
2022-12-08T00:30:58.915Z,1.48
2022-12-08T00:32:01.301Z,1.92
2022-12-08T00:33:03.520Z,1.60
2022-12-08T00:34:06.433Z,1.40
2022-12-08T00:35:08.817Z,1.58
2022-12-08T00:36:13.765Z,1.88
2022-12-08T00:37:16.296Z,2.00
2022-12-08T00:38:18.503Z,1.48
2022-12-08T00:39:20.689Z,2.03
2022-12-08T00:40:22.934Z,1.55
2022-12-08T00:41:45.302Z,1.60
2022-12-08T00:42:47.449Z,1.55
2022-12-08T00:43:49.872Z,1.90
2022-12-08T00:44:52.094Z,1.70
2022-12-08T00:45:54.528Z,2.00
2022-12-08T00:46:56.951Z,1.83
2022-12-08T00:47:59.156Z,1.80
2022-12-08T00:49:01.584Z,2.00
2022-12-08T00:50:07.353Z,1.90
2022-12-08T00:51:09.589Z,1.70
2022-12-08T00:52:13.114Z,2.15
2022-12-08T00:53:15.284Z,1.63
2022-12-08T00:54:18.267Z,1.80
2022-12-08T00:55:20.419Z,2.53
2022-12-08T00:56:23.129Z,2.10
2022-12-08T00:57:25.503Z,1.90
2022-12-08T00:58:27.814Z,2.55
2022-12-08T00:59:30.014Z,1.90
2022-12-08T01:00:32.201Z,2.28
2022-12-08T01:01:35.289Z,2.08
2022-12-08T01:02:37.942Z,1.80
2022-12-08T01:03:41.149Z,2.28
2022-12-08T01:04:43.633Z,2.35
2022-12-08T01:05:45.973Z,1.77
2022-12-08T01:06:48.553Z,2.10
2022-12-08T01:07:51.229Z,2.35
2022-12-08T01:08:53.646Z,1.98
2022-12-08T01:09:57.675Z,1.77
2022-12-08T01:11:05.070Z,1.70
2022-12-08T01:12:07.799Z,1.80
2022-12-08T01:13:09.992Z,1.70
2022-12-08T01:14:13.077Z,1.83
2022-12-08T01:15:15.532Z,2.20
2022-12-08T01:16:27.252Z,2.33
2022-12-08T01:17:29.481Z,2.13
2022-12-08T01:18:32.445Z,2.22
2022-12-08T01:19:35.070Z,1.83
2022-12-08T01:20:37.289Z,1.98
2022-12-08T01:21:41.039Z,2.05
2022-12-08T01:22:43.395Z,2.00
2022-12-08T01:23:45.981Z,2.10
2022-12-08T01:24:48.518Z,2.00
2022-12-08T01:25:51.816Z,1.95
2022-12-08T01:26:55.817Z,2.00
2022-12-08T01:27:58.143Z,2.53
2022-12-08T01:29:00.325Z,2.10
2022-12-08T01:30:03.837Z,1.63
2022-12-08T01:31:11.614Z,1.98
2022-12-08T01:32:13.843Z,1.63
2022-12-08T01:33:16.176Z,2.28
2022-12-08T01:34:18.328Z,2.05
2022-12-08T01:35:20.698Z,2.50
2022-12-08T01:36:25.416Z,2.28
2022-12-08T01:37:27.772Z,2.20
2022-12-08T01:38:30.874Z,1.70
2022-12-08T01:39:33.046Z,2.42
2022-12-08T01:40:35.395Z,1.92
2022-12-08T01:41:39.820Z,1.75
2022-12-08T01:42:41.996Z,2.13
2022-12-08T01:43:56.004Z,2.00
2022-12-08T01:45:02.542Z,2.80
2022-12-08T01:46:05.621Z,2.10
2022-12-08T01:47:08.535Z,1.65
2022-12-08T01:48:31.794Z,1.77
2022-12-08T01:49:36.381Z,1.88
2022-12-08T01:50:42.216Z,1.92
2022-12-08T01:51:59.103Z,1.65
2022-12-08T01:53:14.593Z,2.00
2022-12-08T01:54:17.146Z,2.65
2022-12-08T01:55:26.171Z,2.47
2022-12-08T01:56:35.769Z,1.60
2022-12-08T01:57:43.240Z,2.30
2022-12-08T01:58:49.855Z,2.00
2022-12-08T02:00:04.999Z,1.60
2022-12-08T02:01:10.119Z,1.70
2022-12-08T02:02:12.761Z,1.70
2022-12-08T02:03:22.669Z,1.52
2022-12-08T02:04:24.884Z,1.60
2022-12-08T02:05:33.353Z,1.90
2022-12-08T02:06:39.966Z,1.80
2022-12-08T02:07:43.958Z,1.92
2022-12-08T02:08:47.711Z,2.38
2022-12-08T02:09:51.527Z,1.70
2022-12-08T02:10:53.740Z,1.80
2022-12-08T02:11:58.166Z,1.70
2022-12-08T02:13:01.291Z,1.90
2022-12-08T02:14:06.425Z,3.25
2022-12-08T02:15:09.179Z,1.70
2022-12-08T02:16:29.476Z,1.80
2022-12-08T02:17:48.819Z,1.98
2022-12-08T02:19:30.341Z,2.20
2022-12-08T02:20:56.499Z,2.15
2022-12-08T02:22:01.156Z,2.08
2022-12-08T02:23:03.267Z,2.20
2022-12-08T02:24:19.600Z,2.35
2022-12-08T02:25:56.019Z,3.13
2022-12-08T02:27:16.905Z,2.47
2022-12-08T02:28:52.277Z,2.03
2022-12-08T02:30:33.492Z,2.42
2022-12-08T02:32:22.097Z,2.80
2022-12-08T02:33:53.210Z,2.40
2022-12-08T02:35:13.626Z,2.00
2022-12-08T02:36:50.993Z,1.95
2022-12-08T02:38:05.035Z,2.20
2022-12-08T02:39:35.080Z,2.83
2022-12-08T02:40:52.608Z,2.08
2022-12-08T02:42:12.648Z,2.50
2022-12-08T02:43:23.469Z,2.28
2022-12-08T02:45:41.280Z,2.75
2022-12-08T02:46:51.746Z,2.90
2022-12-08T02:47:54.169Z,2.45
2022-12-08T02:48:57.824Z,3.03
2022-12-08T02:50:00.189Z,2.55
2022-12-08T02:51:02.580Z,2.95
2022-12-08T02:52:07.097Z,2.70
2022-12-08T02:54:11.586Z,3.28
2022-12-08T02:55:32.717Z,3.30
2022-12-08T02:56:56.586Z,3.20
2022-12-08T02:58:17.939Z,3.50
2022-12-08T02:59:38.919Z,3.25
2022-12-08T03:01:05.407Z,3.22
2022-12-08T03:02:23.672Z,3.20
2022-12-08T03:03:38.700Z,3.30
2022-12-08T03:04:51.016Z,4.13
2022-12-08T03:06:30.110Z,3.30
2022-12-08T03:07:42.639Z,4.30
2022-12-08T03:09:17.736Z,3.83
2022-12-08T03:10:37.715Z,5.28
2022-12-08T03:11:58.284Z,4.57
2022-12-08T03:13:07.931Z,5.03
2022-12-08T03:14:16.386Z,5.28
2022-12-08T03:15:20.518Z,5.70
2022-12-08T03:16:26.312Z,5.68
2022-12-08T03:17:31.447Z,5.25
2022-12-08T03:18:39.477Z,6.15
2022-12-08T03:19:44.097Z,5.40
2022-12-08T03:20:47.816Z,5.47
2022-12-08T03:22:00.446Z,6.03
2022-12-08T03:23:09.011Z,7.05
2022-12-08T03:24:13.061Z,6.13
2022-12-08T03:25:20.883Z,6.20
2022-12-08T03:26:34.368Z,5.95
2022-12-08T03:27:36.838Z,6.30
2022-12-08T03:28:39.824Z,6.40
2022-12-08T03:29:42.042Z,5.82
2022-12-08T03:30:50.133Z,7.00
2022-12-08T03:31:56.429Z,6.15
2022-12-08T03:33:11.915Z,6.15
2022-12-08T03:34:15.337Z,6.32
2022-12-08T03:35:23.487Z,6.05
2022-12-08T03:36:26.207Z,6.32
2022-12-08T03:37:28.993Z,6.45
2022-12-08T03:38:45.749Z,6.57
2022-12-08T03:39:48.125Z,6.50
2022-12-08T03:41:10.396Z,7.07
2022-12-08T03:42:12.725Z,5.78
2022-12-08T03:43:14.885Z,6.40
2022-12-08T03:44:17.115Z,6.50
2022-12-08T03:45:19.270Z,6.95
2022-12-08T03:47:24.823Z,6.47
2022-12-08T03:48:27.141Z,6.57
2022-12-08T03:49:29.487Z,6.85
2022-12-08T03:50:31.688Z,6.47
2022-12-08T03:51:34.058Z,6.65
2022-12-08T03:52:36.257Z,6.70
2022-12-08T03:53:38.885Z,6.82
2022-12-08T03:54:41.243Z,6.75
2022-12-08T03:55:43.525Z,6.93
2022-12-08T03:56:45.908Z,6.63
2022-12-08T03:57:48.110Z,6.57
2022-12-08T03:58:50.697Z,7.05
2022-12-08T03:59:53.081Z,7.53
2022-12-08T04:00:55.275Z,7.18
2022-12-08T04:01:57.473Z,7.50
2022-12-08T04:02:59.941Z,7.38
2022-12-08T04:04:02.318Z,7.50
2022-12-08T04:05:04.809Z,7.05
2022-12-08T04:06:10.833Z,6.57
2022-12-08T04:07:13.007Z,6.78
2022-12-08T04:08:15.560Z,7.00
2022-12-08T04:09:18.038Z,7.68
2022-12-08T04:10:20.404Z,6.63
2022-12-08T04:11:22.728Z,6.68
2022-12-08T04:12:24.914Z,6.85
2022-12-08T04:13:27.499Z,6.65
2022-12-08T04:14:29.887Z,6.70
2022-12-08T04:15:32.082Z,6.93
2022-12-08T04:16:34.486Z,6.78
2022-12-08T04:17:36.757Z,6.82
2022-12-08T04:18:38.939Z,6.43
2022-12-08T04:19:41.393Z,6.47
2022-12-08T04:20:44.972Z,6.28
2022-12-08T04:21:47.326Z,6.20
2022-12-08T04:22:49.503Z,6.63
2022-12-08T04:23:56.111Z,6.78
2022-12-08T04:25:01.905Z,6.30
2022-12-08T04:26:04.628Z,6.50
2022-12-08T04:27:06.841Z,6.60
2022-12-08T04:28:09.065Z,6.75
2022-12-08T04:29:11.371Z,6.38
2022-12-08T04:30:13.842Z,6.75
2022-12-08T04:31:16.422Z,6.88
2022-12-08T04:32:18.817Z,6.68
2022-12-08T04:33:21.303Z,6.55
2022-12-08T04:34:23.494Z,6.95
2022-12-08T04:35:25.742Z,6.60
2022-12-08T04:36:27.949Z,7.18
2022-12-08T04:37:30.148Z,6.35
2022-12-08T04:38:33.493Z,6.28
2022-12-08T04:39:35.881Z,6.45
2022-12-08T04:40:38.191Z,6.65
2022-12-08T04:41:40.570Z,6.97
2022-12-08T04:42:43.012Z,6.88
2022-12-08T04:43:45.374Z,7.25
2022-12-08T04:44:47.572Z,6.30
2022-12-08T04:45:49.737Z,6.47
2022-12-08T04:46:52.391Z,6.18
2022-12-08T04:47:54.586Z,6.53
2022-12-08T04:48:56.751Z,7.53
2022-12-08T04:49:59.551Z,5.57
2022-12-08T04:51:01.737Z,7.03
2022-12-08T04:52:04.175Z,6.53
2022-12-08T04:53:06.482Z,6.80
2022-12-08T04:54:08.675Z,6.40
2022-12-08T04:55:11.339Z,6.88
2022-12-08T04:56:15.748Z,6.35
2022-12-08T04:57:17.987Z,6.75
2022-12-08T04:58:20.568Z,6.53
2022-12-08T04:59:22.942Z,6.57
2022-12-08T05:00:25.322Z,6.60
2022-12-08T05:01:27.533Z,6.00
2022-12-08T05:02:30.231Z,6.38
2022-12-08T05:03:32.622Z,6.38
2022-12-08T05:04:34.817Z,6.75
2022-12-08T05:05:37.221Z,5.93
2022-12-08T05:06:39.403Z,6.22
2022-12-08T05:07:41.627Z,5.80
2022-12-08T05:08:44.149Z,6.00
2022-12-08T05:09:46.512Z,6.53
2022-12-08T05:10:48.687Z,6.70
2022-12-08T05:11:51.179Z,6.75
2022-12-08T05:12:53.367Z,6.25
2022-12-08T05:13:55.739Z,6.07
2022-12-08T05:14:58.115Z,5.80
2022-12-08T05:16:05.166Z,5.93
2022-12-08T05:17:09.689Z,6.30
2022-12-08T05:18:12.165Z,5.95
2022-12-08T05:19:15.243Z,6.57
2022-12-08T05:20:17.858Z,6.57
2022-12-08T05:21:20.071Z,5.80
2022-12-08T05:22:22.335Z,6.18
2022-12-08T05:23:26.250Z,5.82
2022-12-08T05:24:28.479Z,6.63
2022-12-08T05:25:30.825Z,6.28
2022-12-08T05:26:33.443Z,6.53
2022-12-08T05:27:36.173Z,6.32
2022-12-08T05:28:43.017Z,6.00
2022-12-08T05:29:48.108Z,6.03
2022-12-08T05:30:50.516Z,6.15
2022-12-08T05:31:53.001Z,6.40
2022-12-08T05:32:55.278Z,6.30
2022-12-08T05:34:02.763Z,6.38
2022-12-08T05:35:06.087Z,6.78
2022-12-08T05:36:10.073Z,6.40
2022-12-08T05:37:12.380Z,6.32
2022-12-08T05:38:14.588Z,6.70
2022-12-08T05:39:16.754Z,6.80
2022-12-08T05:40:19.213Z,6.68
2022-12-08T05:41:21.598Z,6.65
2022-12-08T05:42:25.122Z,6.05
2022-12-08T05:43:27.707Z,6.65
2022-12-08T05:44:30.086Z,6.47
2022-12-08T05:45:32.535Z,6.75
2022-12-08T05:46:35.603Z,6.38
2022-12-08T05:47:37.961Z,6.72
2022-12-08T05:48:40.746Z,6.18
2022-12-08T05:49:43.216Z,6.97
2022-12-08T05:50:48.962Z,6.68
2022-12-08T05:51:51.361Z,6.50
2022-12-08T05:52:53.735Z,6.80
2022-12-08T05:53:56.769Z,6.07
2022-12-08T05:54:59.006Z,6.78
2022-12-08T05:56:01.188Z,7.00
2022-12-08T05:57:03.434Z,6.78
2022-12-08T05:58:08.115Z,6.57
2022-12-08T05:59:10.506Z,7.30
2022-12-08T06:00:13.445Z,6.57
2022-12-08T06:01:29.538Z,7.05
2022-12-08T06:02:32.091Z,6.35
2022-12-08T06:03:34.846Z,7.70
2022-12-08T06:04:37.160Z,7.28
2022-12-08T06:05:40.708Z,6.82
2022-12-08T06:06:43.055Z,6.68
2022-12-08T06:07:45.416Z,7.53
2022-12-08T06:08:48.067Z,6.55
2022-12-08T06:09:50.250Z,6.95
2022-12-08T06:10:52.701Z,7.03
2022-12-08T06:11:54.958Z,7.53
2022-12-08T06:12:57.161Z,7.65
2022-12-08T06:14:00.253Z,7.03
2022-12-08T06:15:02.764Z,7.15
2022-12-08T06:16:07.898Z,7.40
2022-12-08T06:17:10.192Z,7.25
2022-12-08T06:18:12.441Z,7.22
2022-12-08T06:19:15.989Z,7.78
2022-12-08T06:20:18.321Z,6.82
2022-12-08T06:21:21.028Z,7.50
2022-12-08T06:22:23.393Z,7.25
2022-12-08T06:23:25.566Z,7.63
2022-12-08T06:24:28.214Z,7.47
2022-12-08T06:25:30.602Z,7.22
2022-12-08T06:26:32.793Z,8.10
2022-12-08T06:27:34.969Z,7.97
2022-12-08T06:28:38.045Z,6.97
2022-12-08T06:29:40.484Z,7.88
2022-12-08T06:30:42.868Z,8.10
2022-12-08T06:31:45.121Z,7.32
2022-12-08T06:32:48.526Z,7.63
2022-12-08T06:33:51.230Z,8.57
2022-12-08T06:34:53.414Z,7.85
2022-12-08T06:35:55.591Z,8.27
2022-12-08T06:36:57.924Z,7.72
2022-12-08T06:38:00.107Z,7.65
2022-12-08T06:39:02.268Z,7.97
2022-12-08T06:40:05.387Z,7.90
2022-12-08T06:41:08.247Z,7.57
2022-12-08T06:42:28.963Z,7.20
2022-12-08T06:43:31.275Z,7.95
2022-12-08T06:44:33.524Z,8.20
2022-12-08T06:45:35.974Z,7.53
2022-12-08T06:46:38.184Z,7.93
2022-12-08T06:47:40.644Z,8.82
2022-12-08T06:48:43.332Z,8.02
2022-12-08T06:50:04.561Z,8.55
2022-12-08T06:51:11.439Z,8.90
2022-12-08T06:52:13.676Z,9.05
2022-12-08T06:53:16.389Z,7.88
2022-12-08T06:54:18.680Z,8.07
2022-12-08T06:55:50.614Z,8.68
2022-12-08T06:56:43.509Z,8.30
2022-12-08T06:57:45.893Z,8.48
2022-12-08T06:58:52.498Z,7.88
2022-12-08T06:59:55.510Z,8.88
2022-12-08T07:00:57.775Z,9.20
2022-12-08T07:02:00.203Z,7.50
2022-12-08T07:03:02.711Z,8.55
2022-12-08T07:04:05.003Z,8.95
2022-12-08T07:05:07.189Z,7.97
2022-12-08T07:06:16.025Z,8.63
2022-12-08T07:07:18.356Z,8.25
2022-12-08T07:08:21.109Z,8.68
2022-12-08T07:09:23.391Z,8.77
2022-12-08T07:11:28.131Z,9.10
2022-12-08T07:12:30.524Z,8.35
2022-12-08T07:13:32.890Z,9.32
2022-12-08T07:14:35.101Z,9.10
2022-12-08T07:15:37.688Z,8.68
2022-12-08T07:16:39.948Z,8.32
2022-12-08T07:17:42.358Z,8.68
2022-12-08T07:18:44.712Z,8.30
2022-12-08T07:19:46.877Z,8.40
2022-12-08T07:20:49.273Z,9.57
2022-12-08T07:21:51.433Z,10.05
2022-12-08T07:22:53.954Z,9.88
2022-12-08T07:23:58.001Z,8.80
2022-12-08T07:25:00.367Z,9.05
2022-12-08T07:26:04.617Z,8.25
2022-12-08T07:27:07.034Z,8.63
2022-12-08T07:28:11.102Z,8.52
2022-12-08T07:29:13.836Z,8.73
2022-12-08T07:30:16.351Z,8.68
2022-12-08T07:31:24.566Z,8.98
2022-12-08T07:32:26.939Z,8.90
2022-12-08T07:33:29.257Z,9.73
2022-12-08T07:34:31.871Z,9.30
2022-12-08T07:35:35.186Z,8.30
2022-12-08T07:36:37.856Z,8.25
2022-12-08T07:37:40.328Z,9.00
2022-12-08T07:38:43.202Z,9.57
2022-12-08T07:39:45.558Z,9.20
2022-12-08T07:40:48.001Z,9.20
2022-12-08T07:41:50.635Z,9.05
2022-12-08T07:42:52.922Z,9.00
2022-12-08T07:43:56.314Z,10.00
2022-12-08T07:44:58.523Z,9.35
2022-12-08T07:46:00.766Z,9.88
2022-12-08T07:47:03.082Z,9.20
2022-12-08T07:48:05.656Z,9.10
2022-12-08T07:49:08.038Z,10.02
2022-12-08T07:50:10.318Z,9.40
2022-12-08T07:51:14.320Z,9.32
2022-12-08T07:52:16.645Z,9.55
2022-12-08T07:53:18.814Z,9.07
2022-12-08T07:54:21.006Z,9.25
2022-12-08T07:55:23.512Z,10.32
2022-12-08T07:56:25.969Z,9.80
2022-12-08T07:57:28.163Z,9.93
2022-12-08T07:58:30.609Z,9.40
2022-12-08T07:59:33.138Z,9.63
2022-12-08T08:00:35.687Z,9.93
2022-12-08T08:01:38.308Z,11.07
2022-12-08T08:02:42.326Z,8.27
2022-12-08T08:03:44.569Z,9.52
2022-12-08T08:04:50.701Z,8.95
2022-12-08T08:05:53.525Z,9.05
2022-12-08T08:06:56.054Z,9.45
2022-12-08T08:07:58.429Z,9.60
2022-12-08T08:09:00.853Z,9.10
2022-12-08T08:10:03.765Z,8.43
2022-12-08T08:11:15.746Z,8.82
2022-12-08T08:12:32.764Z,8.10
2022-12-08T08:13:35.502Z,9.32
2022-12-08T08:14:38.167Z,9.75
2022-12-08T08:15:40.666Z,9.20
2022-12-08T08:16:46.834Z,9.18
2022-12-08T08:17:51.748Z,9.93
2022-12-08T08:18:54.517Z,8.60
2022-12-08T08:19:57.337Z,8.93
2022-12-08T08:21:06.739Z,10.43
2022-12-08T08:22:22.169Z,9.70
2022-12-08T08:23:27.902Z,9.20
2022-12-08T08:24:30.114Z,8.93
2022-12-08T08:25:32.561Z,9.13
2022-12-08T08:26:36.956Z,8.82
2022-12-08T08:27:39.831Z,9.23
2022-12-08T08:28:43.905Z,9.57
2022-12-08T08:29:46.195Z,8.88
2022-12-08T08:30:48.446Z,9.23
2022-12-08T08:31:50.718Z,9.43
2022-12-08T08:32:52.946Z,8.90
2022-12-08T08:33:59.201Z,9.50
2022-12-08T08:35:02.125Z,9.90
2022-12-08T08:36:11.292Z,10.25
2022-12-08T08:37:16.460Z,8.80
2022-12-08T08:38:18.746Z,9.80
2022-12-08T08:39:20.950Z,10.88
2022-12-08T08:40:23.731Z,9.15
2022-12-08T08:41:26.163Z,9.55
2022-12-08T08:42:28.425Z,8.48
2022-12-08T08:43:37.574Z,8.70
2022-12-08T08:44:40.743Z,8.52
2022-12-08T08:45:46.522Z,9.55
2022-12-08T08:46:49.053Z,8.23
2022-12-08T08:47:52.364Z,9.05
2022-12-08T08:48:54.588Z,8.77
2022-12-08T08:49:56.770Z,9.35
2022-12-08T08:50:59.714Z,9.30
2022-12-08T08:52:03.042Z,9.20
2022-12-08T08:53:05.283Z,9.45
2022-12-08T08:54:07.693Z,9.50
2022-12-08T08:55:10.395Z,9.27
2022-12-08T08:56:15.121Z,9.32
2022-12-08T08:57:23.647Z,9.20
2022-12-08T08:58:29.702Z,8.75
2022-12-08T08:59:34.875Z,8.63
2022-12-08T09:00:37.270Z,9.55
2022-12-08T09:01:39.824Z,9.00
2022-12-08T09:02:42.069Z,9.20
2022-12-08T09:03:45.434Z,8.68
2022-12-08T09:04:47.696Z,9.07
2022-12-08T09:05:50.754Z,8.93
2022-12-08T09:06:53.462Z,9.23
2022-12-08T09:07:55.797Z,8.55
2022-12-08T09:08:58.833Z,9.10
2022-12-08T09:10:02.013Z,9.52
2022-12-08T09:11:04.868Z,7.88
2022-12-08T09:12:08.033Z,8.38
2022-12-08T09:13:10.281Z,8.68
2022-12-08T09:14:14.768Z,8.35
2022-12-08T09:15:17.474Z,8.73
2022-12-08T09:16:20.391Z,8.10
2022-12-08T09:17:22.824Z,8.00
2022-12-08T09:18:27.329Z,8.30
2022-12-08T09:19:31.002Z,8.05
2022-12-08T09:20:35.376Z,7.90
2022-12-08T09:21:42.626Z,8.93
2022-12-08T09:22:45.078Z,8.43
2022-12-08T09:23:55.802Z,8.57
2022-12-08T09:25:00.069Z,8.35
2022-12-08T09:26:07.225Z,7.85
2022-12-08T09:27:09.550Z,8.50
2022-12-08T09:28:13.026Z,7.80
2022-12-08T09:29:15.676Z,8.35
2022-12-08T09:30:17.916Z,7.90
2022-12-08T09:31:24.447Z,8.35
2022-12-08T09:32:26.696Z,7.85
2022-12-08T09:33:30.749Z,9.00
2022-12-08T09:34:33.150Z,8.38
2022-12-08T09:35:35.517Z,8.90
2022-12-08T09:36:37.894Z,9.13
2022-12-08T09:37:42.689Z,8.07
2022-12-08T09:38:49.169Z,7.88
2022-12-08T09:39:53.669Z,7.72
2022-12-08T09:40:56.183Z,7.70
2022-12-08T09:42:07.419Z,8.10
2022-12-08T09:43:23.294Z,9.23
2022-12-08T09:44:55.505Z,8.63
2022-12-08T09:45:58.694Z,8.85
2022-12-08T09:47:05.163Z,8.32
2022-12-08T09:48:11.930Z,8.90
2022-12-08T09:49:21.911Z,8.73
2022-12-08T09:50:45.881Z,9.02
2022-12-08T09:51:48.451Z,8.73
2022-12-08T09:53:02.542Z,8.00
2022-12-08T09:54:24.119Z,7.97
2022-12-08T09:55:55.596Z,8.20
2022-12-08T09:57:06.370Z,8.70
2022-12-08T09:58:20.790Z,8.00
2022-12-08T09:59:35.419Z,8.45
2022-12-08T10:00:37.859Z,8.70
2022-12-08T10:01:43.574Z,8.10
2022-12-08T10:02:47.666Z,8.48
2022-12-08T10:03:50.349Z,8.82
2022-12-08T10:04:56.052Z,9.65
2022-12-08T10:06:09.683Z,9.35
2022-12-08T10:07:27.258Z,9.05
2022-12-08T10:08:55.936Z,8.52
2022-12-08T10:10:04.315Z,8.63
2022-12-08T10:11:29.512Z,8.73
2022-12-08T10:12:48.600Z,8.65
2022-12-08T10:14:13.112Z,8.25
2022-12-08T10:15:53.294Z,8.55
2022-12-08T10:17:04.033Z,8.70
2022-12-08T10:18:16.896Z,8.02
2022-12-08T10:19:25.236Z,8.00
2022-12-08T10:20:37.551Z,9.05
2022-12-08T10:21:40.812Z,8.55
2022-12-08T10:22:45.085Z,8.57
2022-12-08T10:23:51.354Z,9.20
2022-12-08T10:24:58.325Z,9.23
2022-12-08T10:26:20.320Z,9.27
2022-12-08T10:27:25.324Z,8.80
2022-12-08T10:28:27.637Z,10.10
2022-12-08T10:29:30.408Z,9.18
2022-12-08T10:30:32.862Z,9.82
2022-12-08T10:31:35.565Z,9.20
2022-12-08T10:32:38.239Z,8.85
2022-12-08T10:33:46.976Z,9.05
2022-12-08T10:35:04.412Z,10.48
2022-12-08T10:36:07.054Z,9.98
2022-12-08T10:37:10.366Z,9.25
2022-12-08T10:38:32.218Z,9.15
2022-12-08T10:39:45.683Z,8.10
2022-12-08T10:40:50.201Z,8.45
2022-12-08T10:41:52.605Z,7.80
2022-12-08T10:42:59.318Z,8.40
2022-12-08T10:44:02.229Z,9.05
2022-12-08T10:45:16.047Z,8.02
2022-12-08T10:46:19.539Z,8.30
2022-12-08T10:47:23.752Z,7.53
2022-12-08T10:48:31.510Z,8.05
2022-12-08T10:49:38.657Z,8.02
2022-12-08T10:50:46.557Z,7.82
2022-12-08T10:51:48.786Z,6.70
2022-12-08T10:53:11.801Z,7.78
2022-12-08T10:54:29.195Z,8.07
2022-12-08T10:55:46.619Z,7.40
2022-12-08T10:56:55.490Z,7.95
2022-12-08T10:57:57.901Z,7.50
2022-12-08T10:59:15.672Z,7.20
2022-12-08T11:00:23.214Z,7.10
2022-12-08T11:01:32.832Z,7.75
2022-12-08T11:02:59.992Z,6.73
2022-12-08T11:04:05.405Z,6.60
2022-12-08T11:05:22.782Z,7.32
2022-12-08T11:06:34.268Z,8.77
2022-12-08T11:07:36.654Z,6.22
2022-12-08T11:08:57.523Z,7.45
2022-12-08T11:10:00.948Z,6.57
2022-12-08T11:11:03.139Z,6.28
2022-12-08T11:12:20.132Z,6.43
2022-12-08T11:13:26.133Z,6.55
2022-12-08T11:14:57.230Z,6.55
2022-12-08T11:17:10.625Z,8.23
2022-12-08T11:18:26.986Z,6.38
2022-12-08T11:19:29.437Z,6.70
2022-12-08T11:20:39.969Z,7.32
2022-12-08T11:21:42.878Z,7.32
2022-12-08T11:22:53.231Z,6.35
2022-12-08T11:23:55.407Z,6.60
2022-12-08T11:25:15.874Z,6.45
2022-12-08T11:26:33.709Z,5.75
2022-12-08T11:27:39.256Z,5.85
2022-12-08T11:28:41.706Z,5.95
2022-12-08T11:29:43.961Z,7.00
2022-12-08T11:30:54.642Z,6.30
2022-12-08T11:32:04.406Z,6.28
2022-12-08T11:33:17.415Z,6.20
2022-12-08T11:34:28.479Z,9.07
2022-12-08T11:35:35.279Z,6.20
2022-12-08T11:36:38.528Z,5.63
2022-12-08T11:37:44.376Z,6.00
2022-12-08T11:38:48.582Z,6.40
2022-12-08T11:39:55.351Z,6.20
2022-12-08T11:41:08.387Z,6.75
2022-12-08T11:42:19.015Z,6.60
2022-12-08T11:43:33.395Z,6.47
2022-12-08T11:44:57.631Z,5.78
2022-12-08T11:46:03.085Z,5.97
2022-12-08T11:47:09.349Z,5.95
2022-12-08T11:48:32.885Z,5.68
2022-12-08T11:49:41.950Z,5.85
2022-12-08T11:50:56.527Z,5.70
2022-12-08T11:52:29.709Z,5.70
2022-12-08T11:53:41.799Z,5.82
2022-12-08T11:55:33.757Z,5.72
2022-12-08T11:56:53.051Z,5.82
2022-12-08T11:57:59.115Z,5.80
2022-12-08T11:59:10.464Z,5.40
2022-12-08T12:00:17.469Z,5.15
2022-12-08T12:01:25.331Z,5.30
2022-12-08T12:02:31.096Z,5.57
2022-12-08T12:03:44.981Z,5.68
2022-12-08T12:04:52.934Z,5.07
2022-12-08T12:08:09.886Z,5.35
2022-12-08T12:09:19.616Z,5.18
2022-12-08T12:10:49.229Z,5.03
2022-12-08T12:12:28.987Z,5.05
2022-12-08T12:13:46.293Z,5.10
2022-12-08T12:15:16.587Z,4.90
2022-12-08T12:16:46.410Z,5.15
2022-12-08T12:17:57.340Z,5.43
2022-12-08T12:20:16.372Z,5.75
2022-12-08T12:21:42.015Z,6.03
2022-12-08T12:22:51.693Z,5.50
2022-12-08T12:24:26.027Z,6.10
2022-12-08T12:25:33.463Z,5.70
2022-12-08T12:26:39.086Z,5.93
2022-12-08T12:27:41.719Z,5.78
2022-12-08T12:28:50.297Z,6.57
2022-12-08T12:30:00.248Z,6.38
2022-12-08T12:31:10.114Z,6.40
2022-12-08T12:32:15.511Z,6.45
2022-12-08T12:33:21.728Z,6.32
2022-12-08T12:34:39.118Z,7.25
2022-12-08T12:35:43.791Z,6.10
2022-12-08T12:37:06.110Z,6.07
2022-12-08T12:38:41.133Z,7.63
2022-12-08T12:39:52.313Z,6.35
2022-12-08T12:41:03.728Z,6.15
2022-12-08T12:42:28.756Z,6.38
2022-12-08T12:43:36.685Z,6.38
2022-12-08T12:44:40.316Z,7.22
2022-12-08T12:45:45.850Z,7.72
2022-12-08T12:46:50.916Z,6.60
2022-12-08T12:47:57.047Z,6.63
2022-12-08T12:49:36.144Z,6.72
2022-12-08T12:50:49.549Z,7.47
2022-12-08T12:51:55.660Z,6.45
2022-12-08T12:53:00.917Z,6.40
2022-12-08T12:54:27.256Z,8.40
2022-12-08T12:55:52.964Z,6.28
2022-12-08T12:57:14.539Z,7.03
2022-12-08T12:58:36.940Z,5.72
2022-12-08T12:59:55.139Z,6.65
2022-12-08T13:01:10.487Z,6.22
2022-12-08T13:02:30.750Z,6.25
2022-12-08T13:03:33.690Z,6.60
2022-12-08T13:04:37.947Z,7.60
2022-12-08T13:05:51.966Z,5.93
2022-12-08T13:06:56.624Z,6.93
2022-12-08T13:08:20.711Z,7.88
2022-12-08T13:09:32.526Z,6.70
2022-12-08T13:10:39.433Z,6.57
2022-12-08T13:11:52.028Z,7.50
2022-12-08T13:13:17.812Z,7.65
2022-12-08T13:14:32.909Z,6.75
2022-12-08T13:15:41.409Z,6.25
2022-12-08T13:16:43.720Z,6.70
2022-12-08T13:17:49.176Z,7.07
2022-12-08T13:18:57.958Z,7.45
2022-12-08T13:20:03.855Z,6.90
2022-12-08T13:21:09.032Z,8.15
2022-12-08T13:22:50.439Z,7.93
2022-12-08T13:25:45.368Z,7.43
2022-12-08T13:26:49.375Z,7.60
2022-12-08T13:27:53.947Z,7.78
2022-12-08T13:28:58.874Z,7.03
2022-12-08T13:30:38.765Z,6.55
2022-12-08T13:31:57.475Z,7.03
2022-12-08T13:33:18.670Z,7.43
2022-12-08T13:34:48.785Z,6.93
2022-12-08T13:36:00.383Z,9.02
2022-12-08T13:37:08.595Z,8.10
2022-12-08T13:38:19.321Z,8.35
2022-12-08T13:39:28.061Z,7.15
2022-12-08T13:40:45.615Z,7.50
2022-12-08T13:42:02.104Z,7.90
2022-12-08T13:43:18.551Z,7.60
2022-12-08T13:46:57.568Z,7.15
2022-12-08T13:47:34.679Z,6.22
2022-12-08T13:53:34.908Z,7.10
2022-12-08T13:57:30.699Z,6.85
2022-12-08T13:58:36.736Z,7.03
2022-12-08T13:59:44.580Z,6.65
2022-12-08T14:01:06.319Z,5.32
2022-12-08T14:02:32.976Z,6.00
2022-12-08T14:04:20.372Z,6.05
2022-12-08T14:05:18.633Z,5.28
2022-12-08T14:06:42.520Z,6.82
2022-12-08T14:07:46.763Z,5.47
2022-12-08T14:09:05.014Z,5.45
2022-12-08T14:10:23.605Z,5.72
2022-12-08T14:11:34.420Z,6.53
2022-12-08T14:13:38.977Z,5.70
2022-12-08T14:15:02.659Z,6.03
2022-12-08T14:16:06.372Z,5.82
2022-12-08T14:17:14.745Z,6.18
2022-12-08T14:18:31.522Z,6.25
2022-12-08T14:19:35.326Z,6.65
2022-12-08T14:21:12.042Z,6.10
2022-12-08T14:22:02.707Z,6.75
2022-12-08T14:23:08.267Z,7.10
2022-12-08T14:24:11.314Z,6.68
2022-12-08T14:25:15.957Z,6.68
2022-12-08T14:26:18.591Z,6.30
2022-12-08T14:27:26.964Z,6.80
2022-12-08T14:28:30.276Z,6.38
2022-12-08T14:29:47.385Z,6.60
2022-12-08T14:30:51.059Z,6.70
2022-12-08T14:31:53.983Z,7.03
2022-12-08T14:32:58.859Z,7.10
2022-12-08T14:34:01.144Z,6.55
2022-12-08T14:35:09.260Z,6.78
2022-12-08T14:36:16.004Z,6.90
2022-12-08T14:37:18.363Z,6.65
2022-12-08T14:38:23.103Z,6.18
2022-12-08T14:39:25.568Z,6.78
2022-12-08T14:40:39.008Z,6.80
2022-12-08T14:41:41.324Z,6.47
2022-12-08T14:42:48.107Z,6.65
2022-12-08T14:43:59.625Z,6.20
2022-12-08T14:45:09.971Z,6.43
2022-12-08T14:46:23.055Z,7.30
2022-12-08T14:47:34.013Z,6.53
2022-12-08T14:48:36.560Z,6.78
2022-12-08T14:49:39.893Z,7.15
2022-12-08T14:50:55.742Z,6.70
2022-12-08T14:51:57.964Z,6.38
2022-12-08T14:53:00.584Z,7.05
2022-12-08T14:54:09.725Z,8.05
2022-12-08T14:55:15.377Z,6.28
2022-12-08T14:56:25.504Z,6.88
2022-12-08T14:57:35.484Z,5.70
2022-12-08T14:58:38.378Z,6.55
2022-12-08T14:59:42.588Z,6.72
2022-12-08T15:00:48.615Z,6.63
2022-12-08T15:01:53.524Z,6.63
2022-12-08T15:02:57.199Z,6.60
2022-12-08T15:04:27.196Z,7.22
2022-12-08T15:05:31.940Z,6.53
2022-12-08T15:06:34.894Z,6.28
2022-12-08T15:07:43.094Z,6.57
2022-12-08T15:08:55.103Z,6.57
2022-12-08T15:10:35.343Z,7.22
2022-12-08T15:11:37.669Z,6.57
2022-12-08T15:12:40.138Z,6.38
2022-12-08T15:13:47.353Z,6.50
2022-12-08T15:14:55.387Z,6.93
2022-12-08T15:15:58.220Z,6.28
2022-12-08T15:17:00.608Z,5.85
2022-12-08T15:18:12.856Z,7.43